createdAt,value
2018-10-07T00:00:25.699Z,14.37
2018-10-07T00:01:35.593Z,14.4
2018-10-07T00:02:45.375Z,14.39
2018-10-07T00:03:55.518Z,14.37
2018-10-07T00:05:05.652Z,14.24
2018-10-07T00:06:15.897Z,14.22
2018-10-07T00:07:27.252Z,14.31
2018-10-07T00:08:37.418Z,14.21
2018-10-07T00:09:47.577Z,14.22
2018-10-07T00:10:57.705Z,14.25
2018-10-07T00:12:07.885Z,14.25
2018-10-07T00:13:18.023Z,14.26
2018-10-07T00:14:28.259Z,14.25
2018-10-07T00:15:38.164Z,14.26
2018-10-07T00:16:48.335Z,14.24
2018-10-07T00:17:58.570Z,14.25
2018-10-07T00:19:08.751Z,14.26
2018-10-07T00:20:18.938Z,14.25
2018-10-07T00:21:29.105Z,14.19
2018-10-07T00:22:39.231Z,14.22
2018-10-07T00:23:49.365Z,14.13
2018-10-07T00:24:59.540Z,14.19
2018-10-07T00:26:09.499Z,14.16
2018-10-07T00:27:20.738Z,14.11
2018-10-07T00:28:31.074Z,14.09
2018-10-07T00:29:41.207Z,14.16
2018-10-07T00:30:52.402Z,14.11
2018-10-07T00:32:02.352Z,14.18
2018-10-07T00:33:12.237Z,14.13
2018-10-07T00:34:22.371Z,14.18
2018-10-07T00:35:32.531Z,14.14
2018-10-07T00:36:42.668Z,14.09
2018-10-07T00:37:52.842Z,14.14
2018-10-07T00:39:02.730Z,14.11
2018-10-07T00:40:12.869Z,14.14
2018-10-07T00:41:23.067Z,14.09
2018-10-07T00:42:32.915Z,14.14
2018-10-07T00:43:43.050Z,14.16
2018-10-07T00:44:52.923Z,14.14
2018-10-07T00:46:02.865Z,14.14
2018-10-07T00:47:13.118Z,14.09
2018-10-07T00:48:23.461Z,14.13
2018-10-07T00:49:33.631Z,14.11
2018-10-07T00:50:43.819Z,14.14
2018-10-07T00:51:53.708Z,14.07
2018-10-07T00:53:03.872Z,14.09
2018-10-07T00:54:13.991Z,14.02
2018-10-07T00:55:24.171Z,14.03
2018-10-07T00:56:34.396Z,13.99
2018-10-07T00:57:44.601Z,14.03
2018-10-07T00:58:54.777Z,13.94
2018-10-07T01:00:04.785Z,13.94
2018-10-07T01:01:14.926Z,13.88
2018-10-07T01:02:25.118Z,13.91
2018-10-07T01:03:35.322Z,13.84
2018-10-07T01:04:45.157Z,13.77
2018-10-07T01:05:55.319Z,13.76
2018-10-07T01:07:05.430Z,13.69
2018-10-07T01:08:15.574Z,13.71
2018-10-07T01:09:25.728Z,13.74
2018-10-07T01:10:35.844Z,13.74
2018-10-07T01:11:45.717Z,13.58
2018-10-07T01:12:55.863Z,13.63
2018-10-07T01:14:05.993Z,13.55
2018-10-07T01:15:16.115Z,13.56
2018-10-07T01:16:25.975Z,13.56
2018-10-07T01:17:35.631Z,13.61
2018-10-07T01:18:45.807Z,13.55
2018-10-07T01:19:55.948Z,13.54
2018-10-07T01:21:05.736Z,13.54
2018-10-07T01:22:15.978Z,13.54
2018-10-07T01:23:26.122Z,13.54
2018-10-07T01:24:36.288Z,13.58
2018-10-07T01:25:46.223Z,13.45
2018-10-07T01:26:56.396Z,13.46
2018-10-07T01:28:06.559Z,13.51
2018-10-07T01:29:16.781Z,13.52
2018-10-07T01:30:26.970Z,13.45
2018-10-07T01:31:36.849Z,13.49
2018-10-07T01:32:47.034Z,13.45
2018-10-07T01:33:57.185Z,13.38
2018-10-07T01:35:08.388Z,13.44
2018-10-07T01:36:18.026Z,13.44
2018-10-07T01:37:27.957Z,13.4
2018-10-07T01:38:38.113Z,13.44
2018-10-07T01:39:48.245Z,13.41
2018-10-07T01:40:58.453Z,13.48
2018-10-07T01:42:08.630Z,13.41
2018-10-07T01:43:18.889Z,13.38
2018-10-07T01:44:28.768Z,13.41
2018-10-07T01:45:38.957Z,13.37
2018-10-07T01:46:49.121Z,13.48
2018-10-07T01:47:59.267Z,13.41
2018-10-07T01:49:09.458Z,13.38
2018-10-07T01:50:19.618Z,13.34
2018-10-07T01:51:29.767Z,13.37
2018-10-07T01:52:39.911Z,13.3
2018-10-07T01:53:50.048Z,13.26
2018-10-07T01:55:00.217Z,13.31
2018-10-07T01:56:10.361Z,13.23
2018-10-07T01:57:20.653Z,13.27
2018-10-07T01:58:30.845Z,13.26
2018-10-07T01:59:41.024Z,13.18
2018-10-07T02:00:50.876Z,13.19
2018-10-07T02:02:01.017Z,13.21
2018-10-07T02:03:11.233Z,13.19
2018-10-07T02:04:21.386Z,13.16
2018-10-07T02:05:31.536Z,13.12
2018-10-07T02:06:41.674Z,13.04
2018-10-07T02:07:51.859Z,13.04
2018-10-07T02:09:01.991Z,13.09
2018-10-07T02:10:12.120Z,12.97
2018-10-07T02:11:21.994Z,12.96
2018-10-07T02:12:31.774Z,12.95
2018-10-07T02:13:41.904Z,12.88
2018-10-07T02:14:52.096Z,12.92
2018-10-07T02:16:02.230Z,12.92
2018-10-07T02:17:12.489Z,12.84
2018-10-07T02:18:22.441Z,12.95
2018-10-07T02:19:32.565Z,12.97
2018-10-07T02:20:42.688Z,12.92
2018-10-07T02:21:52.812Z,13.03
2018-10-07T02:23:03.000Z,13.04
2018-10-07T02:24:13.246Z,13.11
2018-10-07T02:25:23.502Z,13.06
2018-10-07T02:26:33.647Z,13.11
2018-10-07T02:27:43.836Z,13.04
2018-10-07T02:28:53.997Z,13.09
2018-10-07T02:30:04.205Z,13.15
2018-10-07T02:31:14.347Z,13.11
2018-10-07T02:32:24.375Z,13.03
2018-10-07T02:33:34.740Z,13.06
2018-10-07T02:34:44.861Z,13.04
2018-10-07T02:35:55.122Z,13.01
2018-10-07T02:37:05.297Z,13.03
2018-10-07T02:38:15.531Z,13.01
2018-10-07T02:39:25.398Z,12.97
2018-10-07T02:40:35.533Z,13.03
2018-10-07T02:41:45.692Z,13.06
2018-10-07T02:42:55.822Z,13.03
2018-10-07T02:44:05.955Z,13.06
2018-10-07T02:45:16.118Z,12.97
2018-10-07T02:46:26.234Z,13.03
2018-10-07T02:47:36.398Z,13.04
2018-10-07T02:48:46.546Z,13.08
2018-10-07T02:49:56.740Z,13
2018-10-07T02:51:06.903Z,12.97
2018-10-07T02:52:17.060Z,13.11
2018-10-07T02:53:27.420Z,13.03
2018-10-07T02:54:37.657Z,12.97
2018-10-07T02:55:47.825Z,12.92
2018-10-07T02:56:57.978Z,12.97
2018-10-07T02:58:08.260Z,12.95
2018-10-07T02:59:18.404Z,13
2018-10-07T03:00:28.669Z,12.97
2018-10-07T03:01:38.898Z,12.95
2018-10-07T03:02:49.068Z,12.97
2018-10-07T03:03:59.348Z,12.85
2018-10-07T03:05:09.478Z,12.92
2018-10-07T03:06:19.281Z,12.97
2018-10-07T03:07:29.521Z,12.95
2018-10-07T03:08:39.734Z,12.95
2018-10-07T03:09:49.862Z,12.85
2018-10-07T03:11:00.019Z,13.01
2018-10-07T03:12:09.925Z,12.92
2018-10-07T03:13:20.305Z,12.96
2018-10-07T03:14:30.463Z,12.93
2018-10-07T03:15:40.336Z,12.88
2018-10-07T03:16:50.475Z,12.97
2018-10-07T03:18:00.621Z,12.96
2018-10-07T03:19:10.798Z,12.89
2018-10-07T03:20:20.993Z,12.96
2018-10-07T03:21:31.222Z,12.88
2018-10-07T03:22:41.421Z,12.88
2018-10-07T03:23:51.598Z,12.96
2018-10-07T03:25:01.445Z,12.97
2018-10-07T03:26:11.130Z,13.04
2018-10-07T03:27:20.923Z,13.11
2018-10-07T03:28:31.086Z,13.03
2018-10-07T03:29:41.508Z,13.04
2018-10-07T03:30:51.673Z,13.08
2018-10-07T03:32:01.815Z,13.03
2018-10-07T03:33:12.048Z,13
2018-10-07T03:34:22.002Z,13.06
2018-10-07T03:35:31.865Z,13.09
2018-10-07T03:36:41.987Z,13
2018-10-07T03:37:52.110Z,13.11
2018-10-07T03:39:02.280Z,13.08
2018-10-07T03:40:11.916Z,13.12
2018-10-07T03:41:22.081Z,13.13
2018-10-07T03:42:32.201Z,13.12
2018-10-07T03:43:42.458Z,13.18
2018-10-07T03:44:52.681Z,13.15
2018-10-07T03:46:02.988Z,13.15
2018-10-07T03:47:13.137Z,13.16
2018-10-07T03:48:23.042Z,13.11
2018-10-07T03:49:33.176Z,13.19
2018-10-07T03:50:43.384Z,13.13
2018-10-07T03:51:53.584Z,13.13
2018-10-07T03:53:03.719Z,13.21
2018-10-07T03:54:14.106Z,13.11
2018-10-07T03:55:24.346Z,13.11
2018-10-07T03:56:34.619Z,13.13
2018-10-07T03:57:44.806Z,13.09
2018-10-07T03:58:54.678Z,13.11
2018-10-07T04:00:04.804Z,13.06
2018-10-07T04:01:14.944Z,13.12
2018-10-07T04:02:25.097Z,13.09
2018-10-07T04:03:34.982Z,12.97
2018-10-07T04:04:45.115Z,13
2018-10-07T04:05:55.288Z,13.04
2018-10-07T04:07:05.431Z,13
2018-10-07T04:08:15.764Z,13
2018-10-07T04:09:25.939Z,12.93
2018-10-07T04:10:36.239Z,12.97
2018-10-07T04:11:46.422Z,13.01
2018-10-07T04:12:56.631Z,12.9
2018-10-07T04:14:07.136Z,13
2018-10-07T04:15:17.259Z,13
2018-10-07T04:16:27.417Z,12.95
2018-10-07T04:17:37.570Z,12.95
2018-10-07T04:18:47.802Z,12.95
2018-10-07T04:19:58.004Z,12.97
2018-10-07T04:21:08.303Z,13.03
2018-10-07T04:22:18.455Z,12.88
2018-10-07T04:23:28.604Z,12.92
2018-10-07T04:24:38.894Z,12.9
2018-10-07T04:25:49.068Z,12.92
2018-10-07T04:26:59.233Z,12.92
2018-10-07T04:28:09.496Z,12.85
2018-10-07T04:29:19.743Z,12.89
2018-10-07T04:30:30.145Z,12.82
2018-10-07T04:31:40.283Z,12.95
2018-10-07T04:32:50.233Z,12.9
2018-10-07T04:34:00.356Z,12.9
2018-10-07T04:35:10.217Z,12.84
2018-10-07T04:36:20.403Z,12.85
2018-10-07T04:37:30.357Z,12.84
2018-10-07T04:38:40.297Z,12.89
2018-10-07T04:39:50.246Z,12.8
2018-10-07T04:41:00.376Z,12.81
2018-10-07T04:42:10.527Z,12.81
2018-10-07T04:43:20.637Z,12.84
2018-10-07T04:44:30.759Z,12.84
2018-10-07T04:45:40.980Z,12.8
2018-10-07T04:46:51.150Z,12.85
2018-10-07T04:48:01.315Z,12.81
2018-10-07T04:49:11.456Z,12.82
2018-10-07T04:50:21.328Z,12.78
2018-10-07T04:51:31.469Z,12.81
2018-10-07T04:52:41.634Z,12.92
2018-10-07T04:53:51.760Z,12.85
2018-10-07T04:55:01.919Z,12.84
2018-10-07T04:56:12.044Z,12.9
2018-10-07T04:57:21.913Z,12.92
2018-10-07T04:58:32.038Z,12.89
2018-10-07T04:59:42.167Z,12.89
2018-10-07T05:00:52.317Z,12.95
2018-10-07T05:02:02.091Z,12.95
2018-10-07T05:03:12.050Z,13.03
2018-10-07T05:04:22.218Z,12.97
2018-10-07T05:05:32.372Z,13.04
2018-10-07T05:06:42.527Z,13.04
2018-10-07T05:07:52.646Z,13.03
2018-10-07T05:09:02.267Z,12.97
2018-10-07T05:10:12.385Z,13.03
2018-10-07T05:11:22.771Z,13.08
2018-10-07T05:12:33.063Z,13.18
2018-10-07T05:13:43.453Z,13.08
2018-10-07T05:14:53.599Z,13.11
2018-10-07T05:16:03.796Z,13.09
2018-10-07T05:17:14.028Z,13.08
2018-10-07T05:18:23.888Z,13.12
2018-10-07T05:19:34.070Z,13.13
2018-10-07T05:20:44.227Z,13.11
2018-10-07T05:21:54.477Z,13.16
2018-10-07T05:23:04.603Z,13.18
2018-10-07T05:24:14.770Z,13.11
2018-10-07T05:25:24.932Z,13.13
2018-10-07T05:26:35.138Z,13.06
2018-10-07T05:27:45.437Z,13.08
2018-10-07T05:28:55.653Z,13.06
2018-10-07T05:30:05.819Z,13.16
2018-10-07T05:31:15.620Z,13.11
2018-10-07T05:32:25.894Z,13.12
2018-10-07T05:33:36.619Z,13.11
2018-10-07T05:34:46.854Z,13.09
2018-10-07T05:35:57.027Z,13.09
2018-10-07T05:37:07.244Z,13.13
2018-10-07T05:38:17.471Z,13.16
2018-10-07T05:39:27.698Z,13.13
2018-10-07T05:40:37.885Z,13.16
2018-10-07T05:41:48.018Z,13.15
2018-10-07T05:42:58.213Z,13.11
2018-10-07T05:44:08.386Z,13.16
2018-10-07T05:45:18.915Z,13.18
2018-10-07T05:46:29.075Z,13.26
2018-10-07T05:47:38.948Z,13.19
2018-10-07T05:48:49.133Z,13.27
2018-10-07T05:49:59.271Z,13.23
2018-10-07T05:51:09.426Z,13.26
2018-10-07T05:52:19.634Z,13.27
2018-10-07T05:53:29.888Z,13.27
2018-10-07T05:54:39.784Z,13.23
2018-10-07T05:55:50.318Z,13.23
2018-10-07T05:57:00.609Z,13.22
2018-10-07T05:58:10.808Z,13.21
2018-10-07T05:59:21.637Z,13.15
2018-10-07T06:00:31.523Z,13.26
2018-10-07T06:01:41.804Z,13.18
2018-10-07T06:02:52.306Z,13.12
2018-10-07T06:04:02.438Z,13.18
2018-10-07T06:05:12.043Z,13.15
2018-10-07T06:06:22.352Z,13.11
2018-10-07T06:07:32.210Z,13.12
2018-10-07T06:08:42.340Z,13.12
2018-10-07T06:09:52.481Z,13.12
2018-10-07T06:11:02.350Z,13.15
2018-10-07T06:12:12.765Z,13.09
2018-10-07T06:13:22.695Z,13.18
2018-10-07T06:14:32.868Z,13.13
2018-10-07T06:15:43.166Z,13.15
2018-10-07T06:16:53.078Z,13.12
2018-10-07T06:18:03.230Z,13.13
2018-10-07T06:19:13.134Z,13.12
2018-10-07T06:20:22.922Z,13.11
2018-10-07T06:21:33.243Z,13.08
2018-10-07T06:22:43.699Z,13.16
2018-10-07T06:23:53.815Z,13.13
2018-10-07T06:25:03.954Z,13.15
2018-10-07T06:26:14.181Z,13.12
2018-10-07T06:27:24.377Z,13.08
2018-10-07T06:28:34.675Z,13.08
2018-10-07T06:29:45.021Z,13.09
2018-10-07T06:30:55.341Z,13.09
2018-10-07T06:32:05.475Z,13.03
2018-10-07T06:33:15.437Z,13.03
2018-10-07T06:34:25.311Z,13.06
2018-10-07T06:35:35.213Z,13.01
2018-10-07T06:36:45.337Z,13.09
2018-10-07T06:37:55.200Z,12.97
2018-10-07T06:39:05.339Z,12.97
2018-10-07T06:40:15.238Z,12.95
2018-10-07T06:41:25.473Z,12.82
2018-10-07T06:42:35.787Z,12.82
2018-10-07T06:43:45.984Z,12.78
2018-10-07T06:44:55.786Z,12.74
2018-10-07T06:46:07.002Z,12.68
2018-10-07T06:47:17.253Z,12.57
2018-10-07T06:48:27.415Z,12.56
2018-10-07T06:49:37.619Z,12.6
2018-10-07T06:50:47.886Z,12.6
2018-10-07T06:51:58.272Z,12.52
2018-10-07T06:53:08.166Z,12.56
2018-10-07T06:54:18.297Z,12.52
2018-10-07T06:55:29.619Z,12.52
2018-10-07T06:56:39.795Z,12.35
2018-10-07T06:57:49.912Z,12.44
2018-10-07T06:59:01.021Z,12.24
2018-10-07T07:00:11.170Z,12.27
2018-10-07T07:01:21.336Z,12.22
2018-10-07T07:02:31.501Z,12.26
2018-10-07T07:03:41.709Z,12.23
2018-10-07T07:04:51.931Z,12.19
2018-10-07T07:06:01.853Z,12.11
2018-10-07T07:07:11.990Z,12.05
2018-10-07T07:08:22.171Z,11.98
2018-10-07T07:09:32.417Z,11.98
2018-10-07T07:10:42.724Z,11.91
2018-10-07T07:11:52.888Z,11.9
2018-10-07T07:13:03.210Z,11.74
2018-10-07T07:14:13.669Z,11.84
2018-10-07T07:15:23.895Z,11.74
2018-10-07T07:16:33.792Z,11.69
2018-10-07T07:17:43.980Z,11.69
2018-10-07T07:18:54.173Z,11.57
2018-10-07T07:20:04.215Z,11.65
2018-10-07T07:21:14.470Z,11.64
2018-10-07T07:22:25.576Z,11.61
2018-10-07T07:23:35.469Z,11.62
2018-10-07T07:24:45.736Z,11.57
2018-10-07T07:25:56.038Z,11.46
2018-10-07T07:27:06.199Z,11.38
2018-10-07T07:28:16.346Z,11.4
2018-10-07T07:29:26.225Z,11.39
2018-10-07T07:30:36.456Z,11.43
2018-10-07T07:31:46.673Z,11.3
2018-10-07T07:32:56.829Z,11.38
2018-10-07T07:34:07.076Z,11.27
2018-10-07T07:35:16.926Z,11.25
2018-10-07T07:36:27.086Z,11.12
2018-10-07T07:37:37.278Z,11.2
2018-10-07T07:38:47.497Z,11.13
2018-10-07T07:39:58.620Z,11.2
2018-10-07T07:41:08.765Z,11.23
2018-10-07T07:42:18.982Z,11.21
2018-10-07T07:43:29.418Z,11.23
2018-10-07T07:44:39.582Z,11.23
2018-10-07T07:45:49.777Z,11.16
2018-10-07T07:47:00.037Z,11.17
2018-10-07T07:48:10.213Z,11.17
2018-10-07T07:49:20.681Z,11.17
2018-10-07T07:50:30.855Z,11.28
2018-10-07T07:51:40.628Z,11.3
2018-10-07T07:52:50.811Z,11.33
2018-10-07T07:54:00.954Z,11.28
2018-10-07T07:55:10.792Z,11.34
2018-10-07T07:56:20.990Z,11.38
2018-10-07T07:57:30.893Z,11.34
2018-10-07T07:58:41.114Z,11.31
2018-10-07T07:59:51.290Z,11.3
2018-10-07T08:01:01.472Z,11.35
2018-10-07T08:02:11.609Z,11.39
2018-10-07T08:03:21.761Z,11.38
2018-10-07T08:04:32.005Z,11.35
2018-10-07T08:05:42.185Z,11.3
2018-10-07T08:06:52.098Z,11.33
2018-10-07T08:08:02.284Z,11.34
2018-10-07T08:09:12.415Z,11.28
2018-10-07T08:10:22.569Z,11.28
2018-10-07T08:11:32.727Z,11.21
2018-10-07T08:12:42.881Z,11.13
2018-10-07T08:13:52.773Z,11.23
2018-10-07T08:15:02.978Z,11.12
2018-10-07T08:16:13.110Z,11.21
2018-10-07T08:17:23.398Z,11.13
2018-10-07T08:18:33.980Z,11.13
2018-10-07T08:19:44.231Z,11.24
2018-10-07T08:20:54.387Z,11.27
2018-10-07T08:22:04.555Z,11.25
2018-10-07T08:23:14.805Z,11.25
2018-10-07T08:24:25.771Z,11.17
2018-10-07T08:25:35.998Z,11.3
2018-10-07T08:26:46.154Z,11.33
2018-10-07T08:27:56.017Z,11.3
2018-10-07T08:29:06.164Z,11.31
2018-10-07T08:30:16.306Z,11.3
2018-10-07T08:31:26.505Z,11.28
2018-10-07T08:32:36.394Z,11.28
2018-10-07T08:33:46.390Z,11.33
2018-10-07T08:34:56.666Z,11.28
2018-10-07T08:36:06.943Z,11.39
2018-10-07T08:37:17.124Z,11.48
2018-10-07T08:38:27.351Z,11.39
2018-10-07T08:39:37.145Z,11.38
2018-10-07T08:40:47.017Z,11.38
2018-10-07T08:41:58.134Z,11.43
2018-10-07T08:43:08.282Z,11.4
2018-10-07T08:44:18.467Z,11.43
2018-10-07T08:45:28.691Z,11.49
2018-10-07T08:46:38.866Z,11.42
2018-10-07T08:47:49.116Z,11.45
2018-10-07T08:48:59.357Z,11.48
2018-10-07T08:50:09.544Z,11.5
2018-10-07T08:51:19.765Z,11.46
2018-10-07T08:52:29.946Z,11.42
2018-10-07T08:53:40.109Z,11.43
2018-10-07T08:54:50.362Z,11.46
2018-10-07T08:56:00.805Z,11.61
2018-10-07T08:57:11.272Z,11.61
2018-10-07T08:58:22.619Z,11.59
2018-10-07T08:59:32.823Z,11.59
2018-10-07T09:00:43.047Z,11.59
2018-10-07T09:01:53.247Z,11.64
2018-10-07T09:03:03.190Z,11.58
2018-10-07T09:04:13.357Z,11.64
2018-10-07T09:05:23.503Z,11.64
2018-10-07T09:06:33.302Z,11.48
2018-10-07T09:07:43.444Z,11.46
2018-10-07T09:08:54.137Z,11.46
2018-10-07T09:10:04.788Z,11.5
2018-10-07T09:11:14.972Z,11.46
2018-10-07T09:12:25.159Z,11.48
2018-10-07T09:13:35.334Z,11.49
2018-10-07T09:14:45.905Z,11.48
2018-10-07T09:15:56.190Z,11.45
2018-10-07T09:17:06.369Z,11.46
2018-10-07T09:18:16.688Z,11.59
2018-10-07T09:19:27.085Z,11.58
2018-10-07T09:20:37.047Z,11.48
2018-10-07T09:21:47.230Z,11.48
2018-10-07T09:22:57.135Z,11.48
2018-10-07T09:24:07.294Z,11.43
2018-10-07T09:25:17.481Z,11.48
2018-10-07T09:26:27.629Z,11.53
2018-10-07T09:27:38.138Z,11.49
2018-10-07T09:28:49.095Z,11.46
2018-10-07T09:29:59.237Z,11.46
2018-10-07T09:31:09.415Z,11.48
2018-10-07T09:32:19.692Z,11.35
2018-10-07T09:33:30.162Z,11.38
2018-10-07T09:34:40.112Z,11.33
2018-10-07T09:35:50.064Z,11.28
2018-10-07T09:37:00.375Z,11.23
2018-10-07T09:38:10.579Z,11.13
2018-10-07T09:39:21.125Z,11.05
2018-10-07T09:40:31.455Z,11.09
2018-10-07T09:41:41.881Z,11.1
2018-10-07T09:42:52.104Z,11.08
2018-10-07T09:44:02.242Z,11.03
2018-10-07T09:45:12.420Z,11.08
2018-10-07T09:46:22.600Z,11.05
2018-10-07T09:47:32.887Z,10.98
2018-10-07T09:48:43.075Z,11.12
2018-10-07T09:49:53.440Z,11.2
2018-10-07T09:51:03.592Z,11.2
2018-10-07T09:52:14.002Z,11.17
2018-10-07T09:53:24.503Z,11.16
2018-10-07T09:54:34.737Z,11.2
2018-10-07T09:55:45.028Z,11.25
2018-10-07T09:56:55.283Z,11.17
2018-10-07T09:58:05.700Z,11.24
2018-10-07T09:59:16.558Z,11.21
2018-10-07T10:00:26.884Z,11.24
2018-10-07T10:01:37.117Z,11.33
2018-10-07T10:02:47.348Z,11.27
2018-10-07T10:03:57.526Z,11.34
2018-10-07T10:05:07.974Z,11.4
2018-10-07T10:06:18.290Z,11.35
2018-10-07T10:07:28.547Z,11.42
2018-10-07T10:08:38.847Z,11.38
2018-10-07T10:09:49.048Z,11.39
2018-10-07T10:10:59.418Z,11.43
2018-10-07T10:12:09.875Z,11.48
2018-10-07T10:13:20.673Z,11.46
2018-10-07T10:14:30.873Z,11.45
2018-10-07T10:15:40.724Z,11.49
2018-10-07T10:16:50.956Z,11.39
2018-10-07T10:18:01.200Z,11.39
2018-10-07T10:19:11.468Z,11.43
2018-10-07T10:20:21.665Z,11.43
2018-10-07T10:21:31.947Z,11.43
2018-10-07T10:22:43.086Z,11.42
2018-10-07T10:23:53.294Z,11.39
2018-10-07T10:25:04.513Z,11.35
2018-10-07T10:26:14.347Z,11.21
2018-10-07T10:27:24.312Z,11.28
2018-10-07T10:28:34.565Z,11.17
2018-10-07T10:29:44.590Z,11.31
2018-10-07T10:30:54.794Z,11.3
2018-10-07T10:32:05.225Z,11.33
2018-10-07T10:33:15.441Z,11.28
2018-10-07T10:34:25.332Z,11.33
2018-10-07T10:35:35.528Z,11.43
2018-10-07T10:36:45.769Z,11.46
2018-10-07T10:37:55.839Z,11.38
2018-10-07T10:39:06.066Z,11.38
2018-10-07T10:40:16.319Z,11.43
2018-10-07T10:41:26.538Z,11.48
2018-10-07T10:42:36.766Z,11.42
2018-10-07T10:43:47.027Z,11.48
2018-10-07T10:44:57.271Z,11.53
2018-10-07T10:46:07.520Z,11.5
2018-10-07T10:47:17.331Z,11.46
2018-10-07T10:48:27.546Z,11.49
2018-10-07T10:49:37.710Z,11.48
2018-10-07T10:50:47.888Z,11.59
2018-10-07T10:51:57.820Z,11.61
2018-10-07T10:53:08.008Z,11.64
2018-10-07T10:54:18.247Z,11.71
2018-10-07T10:55:28.613Z,11.76
2018-10-07T10:56:38.583Z,11.74
2018-10-07T10:57:48.583Z,11.91
2018-10-07T10:58:58.889Z,11.99
2018-10-07T11:00:09.124Z,12.35
2018-10-07T11:01:19.368Z,12.68
2018-10-07T11:02:29.992Z,12.85
2018-10-07T11:03:40.356Z,13.03
2018-10-07T11:04:50.556Z,13.15
2018-10-07T11:06:00.789Z,13.15
2018-10-07T11:07:10.978Z,13.18
2018-10-07T11:08:21.162Z,13.3
2018-10-07T11:09:31.405Z,13.34
2018-10-07T11:10:41.182Z,13.36
2018-10-07T11:11:51.478Z,13.31
2018-10-07T11:13:01.657Z,13.3
2018-10-07T11:14:11.853Z,13.27
2018-10-07T11:15:22.134Z,13.13
2018-10-07T11:16:32.694Z,13.15
2018-10-07T11:17:42.916Z,13.08
2018-10-07T11:18:53.174Z,13.09
2018-10-07T11:20:03.370Z,13.08
2018-10-07T11:21:13.540Z,13.12
2018-10-07T11:22:23.731Z,13.13
2018-10-07T11:23:33.960Z,13.22
2018-10-07T11:24:44.281Z,13.19
2018-10-07T11:25:54.511Z,13.26
2018-10-07T11:27:04.401Z,13.27
2018-10-07T11:28:14.621Z,13.21
2018-10-07T11:29:24.798Z,13.09
2018-10-07T11:30:35.218Z,13.04
2018-10-07T11:31:45.453Z,13.11
2018-10-07T11:32:55.655Z,13.16
2018-10-07T11:34:05.923Z,13.23
2018-10-07T11:35:16.433Z,13.27
2018-10-07T11:36:26.635Z,13.4
2018-10-07T11:37:36.830Z,13.44
2018-10-07T11:38:48.414Z,13.41
2018-10-07T11:39:58.679Z,13.48
2018-10-07T11:41:08.857Z,13.48
2018-10-07T11:42:19.074Z,13.51
2018-10-07T11:43:29.274Z,13.58
2018-10-07T11:44:39.659Z,13.54
2018-10-07T11:45:49.829Z,13.56
2018-10-07T11:47:00.033Z,13.63
2018-10-07T11:48:10.280Z,13.84
2018-10-07T11:49:20.333Z,13.92
2018-10-07T11:50:30.580Z,13.94
2018-10-07T11:51:40.769Z,13.91
2018-10-07T11:52:50.743Z,13.95
2018-10-07T11:54:01.464Z,13.92
2018-10-07T11:55:11.729Z,13.77
2018-10-07T11:56:21.438Z,13.76
2018-10-07T11:57:31.634Z,13.94
2018-10-07T11:58:41.834Z,13.96
2018-10-07T11:59:52.459Z,14.02
2018-10-07T12:01:02.809Z,14.14
2018-10-07T12:02:13.347Z,14.25
2018-10-07T12:03:23.945Z,14.4
2018-10-07T12:04:34.211Z,14.52
2018-10-07T12:05:44.505Z,14.9
2018-10-07T12:06:55.018Z,15.4
2018-10-07T12:08:05.258Z,15.78
2018-10-07T12:09:15.524Z,16.09
2018-10-07T12:10:26.013Z,16.2
2018-10-07T12:11:36.278Z,16.35
2018-10-07T12:12:46.517Z,16.25
2018-10-07T12:13:56.482Z,16.25
2018-10-07T12:15:06.749Z,16.28
2018-10-07T12:16:17.044Z,16.2
2018-10-07T12:17:27.459Z,16.28
2018-10-07T12:18:37.694Z,16.56
2018-10-07T12:19:47.877Z,16.79
2018-10-07T12:20:58.227Z,16.79
2018-10-07T12:22:08.542Z,17.06
2018-10-07T12:23:18.823Z,17.27
2018-10-07T12:24:29.084Z,17.42
2018-10-07T12:25:39.300Z,17.54
2018-10-07T12:26:49.567Z,17.43
2018-10-07T12:27:59.772Z,17.4
2018-10-07T12:29:10.333Z,17.31
2018-10-07T12:30:20.636Z,17.06
2018-10-07T12:31:30.634Z,16.83
2018-10-07T12:32:40.585Z,16.56
2018-10-07T12:33:51.025Z,16.44
2018-10-07T12:35:01.209Z,16.28
2018-10-07T12:36:11.212Z,16.06
2018-10-07T12:37:21.582Z,15.91
2018-10-07T12:38:31.805Z,15.79
2018-10-07T12:39:41.989Z,15.64
2018-10-07T12:40:52.236Z,15.45
2018-10-07T12:42:02.198Z,15.24
2018-10-07T12:43:13.491Z,15.25
2018-10-07T12:44:23.718Z,15.25
2018-10-07T12:45:33.977Z,15.17
2018-10-07T12:46:44.201Z,15.08
2018-10-07T12:47:54.560Z,15.08
2018-10-07T12:49:04.780Z,14.96
2018-10-07T12:50:14.986Z,14.8
2018-10-07T12:51:25.080Z,14.72
2018-10-07T12:52:35.006Z,14.75
2018-10-07T12:53:45.240Z,14.8
2018-10-07T12:54:55.484Z,14.84
2018-10-07T12:56:05.705Z,14.78
2018-10-07T12:57:15.978Z,14.78
2018-10-07T12:58:26.174Z,14.72
2018-10-07T12:59:36.113Z,14.67
2018-10-07T13:00:46.307Z,14.62
2018-10-07T13:01:56.514Z,14.56
2018-10-07T13:03:06.846Z,14.51
2018-10-07T13:04:17.092Z,14.66
2018-10-07T13:05:27.022Z,14.69
2018-10-07T13:06:37.250Z,14.85
2018-10-07T13:07:47.431Z,14.93
2018-10-07T13:08:57.640Z,15.17
2018-10-07T13:10:07.813Z,15.17
2018-10-07T13:11:18.028Z,15.4
2018-10-07T13:12:28.270Z,15.57
2018-10-07T13:13:38.822Z,15.7
2018-10-07T13:14:49.281Z,15.76
2018-10-07T13:16:01.938Z,15.92
2018-10-07T13:17:14.217Z,15.94
2018-10-07T13:18:24.559Z,16.04
2018-10-07T13:19:35.431Z,15.99
2018-10-07T13:20:47.575Z,16.09
2018-10-07T13:21:57.813Z,16.11
2018-10-07T13:23:07.980Z,16.04
2018-10-07T13:24:18.236Z,16.11
2018-10-07T13:25:28.479Z,16.16
2018-10-07T13:26:38.846Z,16.13
2018-10-07T13:27:49.076Z,16.2
2018-10-07T13:28:59.450Z,16.21
2018-10-07T13:30:10.853Z,16.27
2018-10-07T13:31:21.068Z,16.29
2018-10-07T13:32:31.697Z,16.16
2018-10-07T13:33:42.245Z,16.14
2018-10-07T13:34:52.862Z,16.13
2018-10-07T13:36:04.238Z,16.06
2018-10-07T13:37:15.270Z,15.92
2018-10-07T13:38:25.813Z,15.79
2018-10-07T13:39:35.992Z,15.72
2018-10-07T13:40:46.027Z,15.73
2018-10-07T13:41:56.427Z,15.8
2018-10-07T13:43:06.631Z,15.84
2018-10-07T13:44:19.881Z,15.73
2018-10-07T13:45:32.873Z,15.75
2018-10-07T13:49:16.101Z,15.61
2018-10-07T13:51:43.165Z,15.54
2018-10-07T13:52:53.391Z,15.55
2018-10-07T13:54:03.675Z,15.54
2018-10-07T13:55:13.891Z,15.61
2018-10-07T13:56:24.139Z,15.63
2018-10-07T13:57:34.602Z,15.55
2018-10-07T13:58:44.858Z,15.64
2018-10-07T13:59:55.125Z,15.55
2018-10-07T14:01:05.557Z,15.55
2018-10-07T14:02:15.871Z,15.63
2018-10-07T14:03:26.245Z,15.51
2018-10-07T14:04:36.608Z,15.53
2018-10-07T14:05:46.797Z,15.48
2018-10-07T14:06:57.017Z,15.43
2018-10-07T14:08:07.268Z,15.42
2018-10-07T14:09:17.469Z,15.39
2018-10-07T14:10:27.449Z,15.4
2018-10-07T14:11:37.770Z,15.39
2018-10-07T14:12:47.753Z,15.43
2018-10-07T14:13:57.975Z,15.39
2018-10-07T14:15:08.216Z,15.45
2018-10-07T14:16:18.520Z,15.35
2018-10-07T14:17:28.943Z,15.3
2018-10-07T14:18:39.228Z,15.2
2018-10-07T14:19:49.507Z,15.2
2018-10-07T14:20:59.722Z,15.09
2018-10-07T14:22:09.976Z,15.05
2018-10-07T14:23:20.236Z,14.95
2018-10-07T14:24:30.441Z,14.84
2018-10-07T14:25:40.642Z,14.74
2018-10-07T14:26:51.936Z,14.66
2018-10-07T14:28:02.246Z,14.75
2018-10-07T14:29:13.637Z,14.65
2018-10-07T14:30:23.870Z,14.51
2018-10-07T14:31:34.056Z,14.54
2018-10-07T14:32:44.443Z,14.44
2018-10-07T14:33:54.633Z,14.32
2018-10-07T14:35:04.875Z,14.48
2018-10-07T14:36:15.224Z,14.52
2018-10-07T14:37:24.922Z,14.52
2018-10-07T14:38:35.222Z,14.5
2018-10-07T14:39:45.491Z,14.6
2018-10-07T14:40:55.752Z,14.52
2018-10-07T14:42:05.469Z,14.58
2018-10-07T14:43:16.774Z,14.54
2018-10-07T14:44:27.020Z,14.59
2018-10-07T14:45:37.266Z,14.51
2018-10-07T14:46:47.459Z,14.48
2018-10-07T14:47:57.710Z,14.43
2018-10-07T14:49:08.027Z,14.22
2018-10-07T14:50:18.489Z,14.32
2018-10-07T14:51:28.453Z,14.24
2018-10-07T14:52:38.681Z,14.14
2018-10-07T14:53:49.206Z,14.18
2018-10-07T14:54:59.565Z,14.09
2018-10-07T14:56:10.001Z,14.09
2018-10-07T14:58:35.967Z,13.95
2018-10-07T14:59:46.154Z,13.99
2018-10-07T15:00:56.530Z,14
2018-10-07T15:02:06.830Z,14.03
2018-10-07T15:03:17.291Z,13.99
2018-10-07T15:04:27.565Z,13.92
2018-10-07T15:05:37.824Z,13.92
2018-10-07T15:06:48.046Z,13.82
2018-10-07T15:07:58.287Z,13.85
2018-10-07T15:09:08.600Z,13.84
2018-10-07T15:10:18.572Z,13.81
2018-10-07T15:11:28.944Z,13.74
2018-10-07T15:12:39.173Z,13.71